x

Central Gulf Of Alaska - 265nm West Of Cape Ommaney, Akk (46085) Wave Buoy

9:50pm - Fri 4th Sep 2015 All times are UTC.

  • Sig Wave height 5.9ft
  • Peak Period 6s
  • Average Period 5s
  • Wind
    18mph, 22mph gusts
  • Sea Temp 56°f
  • Air Temp 55°f
  • Sea Pressure 1006.4mb

More Historic Weather Station data

Upgrade to MSW Pro to gain access to the past 30 days of data for over 8000 Wavebouys and Weather Stations around the globe.

Join Pro

Comparision Forecast

View Surf forecast
   
Fri 09/04 9:50pm 6ft 6s 5s 18 22 mph 1006.4mb 56f 55f
8:50pm 6.5ft 5s 5s 20 22 mph 1006.8mb 56f 55f
7:50pm 5.5ft 4s 5s 22 25 mph 1007.7mb 56f 56f
6:50pm 5ft 10s 5s 20 25 mph 1008.6mb 56f 56f
5:50pm 4.5ft 14s 5s 20 22 mph 1009.7mb 56f 56f
4:50pm 4ft 14s 5s 16 20 mph 1010.9mb 56f 56f
3:50pm 3.5ft 14s 5s 16 18 mph 1011.5mb 56f 56f
2:50pm 3.5ft 14s 4s 13 16 mph 1012.2mb 56f 56f
1:50pm 3ft 14s 4s 13 16 mph 1013.1mb 56f 56f
12:50pm 3ft 14s 4s 13 16 mph 1013.9mb 56f 56f
11:50am 3.5ft 14s 4s 16 18 mph 1014.3mb 56f 56f
10:50am 3.5ft 14s 5s 16 18 mph 1014.9mb 56f 56f
9:50am 3ft 4s 4s 13 16 mph 1015.8mb 56f 56f
8:50am 3.5ft 15s 4s 16 18 mph 1016.3mb 56f 56f
7:50am 3ft 14s 4s 13 16 mph 1017mb 56f 56f
6:50am 3ft 14s 4s 16 18 mph 1017.3mb 56f 55f
5:50am 2.5ft 3s 4s 16 18 mph 1017.7mb 56f 55f
4:50am 2.5ft 3s 4s 16 18 mph 1017.7mb 56f 55f
3:50am 2.5ft 3s 4s 16 18 mph 1017.9mb 56f 55f
2:50am 2.5ft 13s 4s 16 18 mph 1018.3mb 56f 55f
1:50am 2.5ft 15s 5s 13 16 mph 1018.9mb 56f 55f
12:50am 2.5ft 15s 5s 11
mph
1019.4mb 56f 54f
Thu 09/03 11:50pm 2.5ft 13s 5s 9 11 mph 1019.7mb 56f 55f
10:50pm 2.5ft 6s 5s 7
mph
1019.9mb 56f 54f
9:50pm 3ft 6s 5s 9 11 mph 1020.2mb 56f 55f
8:50pm 3ft 6s 5s 9
mph
1020.2mb 56f 55f
7:50pm 3ft 15s 6s 7 9 mph 1020.1mb 56f 54f
6:50pm 3ft 10s 5s 4 7 mph 1020.3mb 56f 54f
5:50pm 3ft 15s 5s 7
mph
1020.4mb 56f 54f
4:50pm 3ft 13s 5s 7 9 mph 1020.4mb 56f 54f
3:50pm 3ft 13s 5s 7 9 mph 1020.4mb 56f 54f
2:50pm 3ft 6s 5s 7 9 mph 1020.2mb 56f 54f
1:50pm 3ft 5s 5s 7 9 mph 1020mb 56f 54f
12:50pm 3.5ft 6s 5s 7 9 mph 1019.9mb 56f 54f
11:50am 3.5ft 6s 5s 7 9 mph 1019.8mb 56f 54f
10:50am 3.5ft 6s 5s 9 11 mph 1019.9mb 56f 54f
9:50am 3.5ft 7s 5s 11 13 mph 1019.9mb 56f 54f
8:50am 3.5ft 6s 5s 9 11 mph 1019.9mb 56f 55f
7:50am 3.5ft 7s 5s 11
mph
1019.9mb 56f 55f
6:50am 4ft 7s 5s 9 11 mph 1019.6mb 56f 55f
5:50am 4ft 7s 5s 9 11 mph 1019.5mb 56f 55f
4:50am 4.5ft 7s 5s 11
mph
1019.5mb 56f 56f
3:50am 4.5ft 7s 5s 11 13 mph 1019.2mb 56f 56f
2:50am 5ft 7s 5s 11 13 mph 1018.9mb 56f 56f
1:50am 4.5ft 6s 5s 13
mph
1018.6mb 56f 56f
12:50am 5ft 7s 5s 13 16 mph 1018.3mb 56f 56f
Wed 09/02 11:50pm 4.5ft 7s 5s 11 13 mph 1018.3mb 56f 56f
10:50pm 4.5ft 7s 5s 9 11 mph 1018mb 56f 56f
9:50pm 5ft 7s 5s 11 13 mph 1017.9mb 56f 56f
8:50pm 5ft 7s 5s 11 16 mph 1017.8mb 56f 56f
7:50pm 5ft 8s 5s 11 13 mph 1017.6mb 56f 56f
6:50pm 6ft 7s 5s 13 16 mph 1016.8mb 56f 56f
5:50pm 6ft 8s 5s 16 18 mph 1016.3mb 56f 56f
4:50pm 6ft 8s 5s 13 18 mph 1015.9mb 56f 56f
3:50pm 6ft 8s 5s 16 20 mph 1015.5mb 56f 56f
2:50pm 6.5ft 8s 5s 16 18 mph 1014.8mb 56f 56f
1:50pm 7ft 6s 5s 18 20 mph 1014.3mb 56f 56f
12:50pm 7.5ft 8s 5s 20 25 mph 1013.9mb 56f 56f
11:50am 8ft 8s 6s 22 25 mph 1013.6mb 56f 56f
10:50am 7ft 8s 5s 22 27 mph 1013.3mb 56f 56f
9:50am 6.5ft 8s 5s 18 20 mph 1013.3mb 56f 56f
8:50am 6.5ft 8s 5s 18 22 mph 1013.1mb 56f 55f
7:50am 6ft 7s 5s 16 18 mph 1013mb 56f 55f
6:50am 7ft 9s 6s 18 20 mph 1013.1mb 56f 55f
5:50am 7ft 8s 6s 18 20 mph 1012.8mb 56f 55f
4:50am 6ft 8s 5s 18 20 mph 1012.4mb 56f 55f
3:50am 6.5ft 9s 6s 18 22 mph 1012mb 56f 55f
2:50am 7.5ft 9s 6s 18 20 mph 1011.8mb 56f 55f
1:50am 7ft 9s 6s 18 20 mph 1011.6mb 56f 56f
12:50am 7ft 9s 6s 20 22 mph 1011.3mb 56f 56f
Tue 09/01 11:50pm 8ft 10s 6s 20 22 mph 1011.1mb 56f 56f
10:50pm 8.5ft 10s 6s 18 22 mph 1011mb 56f 56f
9:50pm 9ft 9s 6s 18 20 mph 1010.8mb 56f 56f
8:50pm 9ft 10s 6s 18 20 mph 1010.6mb 56f 56f
7:50pm 10ft 10s 7s 16 18 mph 1010.4mb 56f 56f
6:50pm 9.5ft 10s 7s 13 16 mph 1010mb 56f 56f
5:50pm 9ft 10s 7s 13 16 mph 1009.7mb 56f 56f
4:50pm 10ft 11s 7s 16 20 mph 1009.1mb 56f 56f
3:50pm 11ft 10s 7s 16 20 mph 1008.4mb 56f 56f
2:50pm 11ft 11s 7s 16 20 mph 1007.4mb 56f 55f
1:50pm 12ft 11s 7s 22 27 mph 1006.4mb 56f 55f
12:50pm 12.5ft 11s 7s 20 22 mph 1005.8mb 56f 55f
11:50am 13ft 11s 7s 22 27 mph 1004.5mb 56f 55f
10:50am 14ft 11s 7s 27 34 mph 1002.9mb 56f 54f
9:50am 13.5ft 11s 7s 29 36 mph 1001.2mb 56f 55f
8:50am 14ft 11s 7s 29 36 mph 1000.4mb 56f 54f
7:50am 15ft 11s 7s 27 34 mph 1000.2mb 56f 55f
6:50am 15.5ft 11s 8s 27 34 mph 999.8mb 56f 55f
5:50am 14ft 11s 7s 27 34 mph 999.1mb 56f 53f
4:50am 12ft 11s 7s 20 27 mph 998.5mb 57f 53f
3:50am 14ft 11s 7s 25 31 mph 997.9mb 57f 53f
2:50am 13ft 11s 7s 27 31 mph 997.3mb 57f 53f
1:50am 14.5ft 11s 7s 27 34 mph 997.1mb 57f 53f
12:50am 15ft 11s 8s 29 36 mph 997mb 57f 50f
Mon 08/31 11:50pm 13.5ft 11s 7s 25 31 mph 997.2mb 57f 51f